Time;durP1;ratioP1;P1;durP2;ratioP2;P2;SDS_P1;SDS_P2;PMS_P1;PMS_P2;Temp;Humidity;BMP_temperature;BMP_pressure;BME280_temperature;BME280_humidity;BME280_pressure;Samples;Min_cycle;Max_cycle;Signal;HPM_P1;HPM_P2
2021/10/31 00:00:40;;;;;;;12.53;6.37;;;12.30;99.90;;;;;;5039975;28;20207;-91
2021/10/31 00:03:06;;;;;;;9.13;6.30;;;12.40;99.90;;;;;;5054214;28;20205;-86
2021/10/31 00:05:32;;;;;;;8.07;5.63;;;12.30;99.90;;;;;;5058713;28;20189;-93
2021/10/31 00:07:57;;;;;;;10.20;6.47;;;12.30;99.90;;;;;;5051179;28;20177;-92
2021/10/31 00:10:31;;;;;;;9.40;6.03;;;12.20;99.90;;;;;;5040307;28;20173;-87
2021/10/31 00:12:57;;;;;;;10.13;6.30;;;12.30;99.90;;;;;;5039551;28;20201;-86
2021/10/31 00:15:23;;;;;;;9.50;6.10;;;12.20;99.90;;;;;;5050409;28;20178;-86
2021/10/31 00:17:49;;;;;;;10.50;6.57;;;12.20;99.90;;;;;;5056139;28;20269;-88
2021/10/31 00:20:17;;;;;;;8.73;6.17;;;12.10;99.90;;;;;;5045944;28;20181;-91
2021/10/31 00:22:47;;;;;;;9.30;6.93;;;12.20;99.90;;;;;;5040258;28;20661;-92
2021/10/31 00:25:16;;;;;;;7.77;6.13;;;12.20;99.90;;;;;;5048199;28;20193;-85
2021/10/31 00:27:42;;;;;;;11.77;6.83;;;12.20;99.90;;;;;;5052271;28;20185;-92
2021/10/31 00:30:09;;;;;;;9.50;6.60;;;12.20;99.90;;;;;;5051027;28;20267;-86
2021/10/31 00:32:41;;;;;;;9.13;6.27;;;12.10;99.90;;;;;;5056913;28;20181;-92
2021/10/31 00:35:13;;;;;;;8.97;6.40;;;12.20;99.90;;;;;;5059048;28;20185;-86
2021/10/31 00:37:39;;;;;;;9.30;6.90;;;12.10;99.90;;;;;;5044530;28;20242;-92
2021/10/31 00:40:05;;;;;;;9.20;6.60;;;12.10;99.90;;;;;;5037420;28;20264;-93
2021/10/31 00:42:32;;;;;;;8.73;6.27;;;12.10;99.90;;;;;;5046732;28;20189;-91
2021/10/31 00:44:58;;;;;;;10.40;7.43;;;12.10;99.90;;;;;;5055653;28;20237;-90
2021/10/31 00:47:42;;;;;;;8.80;6.97;;;12.10;99.90;;;;;;5047795;28;20182;-93
2021/10/31 00:50:10;;;;;;;11.93;7.57;;;12.10;99.90;;;;;;5036822;28;20351;-93
2021/10/31 00:52:37;;;;;;;12.13;7.73;;;12.10;99.90;;;;;;5037383;28;20236;-92
2021/10/31 00:55:05;;;;;;;12.90;7.70;;;12.10;99.90;;;;;;5038672;28;20190;-91
2021/10/31 00:57:31;;;;;;;10.73;7.07;;;12.10;99.90;;;;;;5035578;28;20189;-91
2021/10/31 00:59:58;;;;;;;10.27;7.03;;;12.10;99.90;;;;;;5038805;28;20182;-92
2021/10/31 01:02:26;;;;;;;11.47;7.57;;;12.10;99.90;;;;;;5044318;28;20193;-92
2021/10/31 01:04:58;;;;;;;8.87;6.90;;;12.30;99.90;;;;;;5055623;28;20208;-90
2021/10/31 01:07:47;;;;;;;13.30;7.43;;;12.10;99.90;;;;;;5057600;28;20166;-92
2021/10/31 01:10:53;;;;;;;9.03;7.20;;;12.00;99.90;;;;;;5047772;28;20184;-91
2021/10/31 01:13:50;;;;;;;9.37;6.90;;;12.00;99.90;;;;;;5054838;28;20178;-89
2021/10/31 01:16:35;;;;;;;9.57;7.07;;;12.00;99.90;;;;;;5058627;28;20170;-92
2021/10/31 01:19:10;;;;;;;9.53;7.20;;;12.00;99.90;;;;;;5038881;28;20201;-93
2021/10/31 01:21:46;;;;;;;12.23;7.17;;;12.00;99.90;;;;;;5039637;28;20192;-92
2021/10/31 01:24:42;;;;;;;10.93;6.83;;;12.00;99.90;;;;;;5038602;28;20682;-92
2021/10/31 01:27:45;;;;;;;11.27;7.23;;;12.00;99.90;;;;;;5035539;28;20178;-87
2021/10/31 01:30:36;;;;;;;9.17;6.50;;;11.90;99.90;;;;;;5035896;28;20647;-88
2021/10/31 01:33:12;;;;;;;10.30;6.93;;;12.00;99.90;;;;;;5037969;28;20880;-85
2021/10/31 01:36:35;;;;;;;15.10;9.93;;;11.90;99.90;;;;;;5042162;28;20186;-84
2021/10/31 01:39:21;;;;;;;11.10;7.47;;;11.90;99.90;;;;;;4965553;29;20181;-82
2021/10/31 01:42:10;;;;;;;10.10;7.20;;;11.90;99.90;;;;;;4949525;29;20240;-85
2021/10/31 01:45:02;;;;;;;9.27;7.13;;;12.00;99.90;;;;;;5024431;28;20228;-86
2021/10/31 01:48:00;;;;;;;9.70;7.20;;;11.90;99.90;;;;;;5053896;28;20158;-90
2021/10/31 01:50:47;;;;;;;13.00;7.43;;;12.00;99.90;;;;;;5056957;28;20174;-91
2021/10/31 01:53:21;;;;;;;9.60;6.60;;;12.10;99.90;;;;;;5051811;28;20169;-83
2021/10/31 01:56:12;;;;;;;9.67;6.73;;;12.20;99.90;;;;;;5055388;28;20181;-83
2021/10/31 01:58:46;;;;;;;10.23;6.97;;;12.00;99.90;;;;;;5049909;28;20177;-85
2021/10/31 02:01:19;;;;;;;7.50;6.57;;;12.00;99.90;;;;;;5047994;28;20178;-85
2021/10/31 02:03:49;;;;;;;9.50;6.80;;;12.00;99.90;;;;;;5043928;28;20237;-85
2021/10/31 02:06:17;;;;;;;10.30;7.40;;;12.00;99.90;;;;;;5053498;28;20160;-85
2021/10/31 02:08:46;;;;;;;7.70;6.83;;;12.00;99.90;;;;;;5056643;28;20254;-90
2021/10/31 02:11:20;;;;;;;8.20;6.70;;;12.00;99.90;;;;;;5038760;28;20177;-90
2021/10/31 02:13:52;;;;;;;10.23;7.77;;;11.90;99.90;;;;;;5040572;28;20222;-87
2021/10/31 02:16:19;;;;;;;10.23;7.30;;;11.90;99.90;;;;;;5041244;28;20174;-88
2021/10/31 02:18:56;;;;;;;9.20;7.73;;;12.00;99.90;;;;;;5049987;28;20194;-93
2021/10/31 02:21:33;;;;;;;10.63;7.73;;;11.90;99.90;;;;;;5035513;28;20234;-90
2021/10/31 02:24:02;;;;;;;9.73;8.00;;;11.90;99.90;;;;;;5036270;28;20208;-91
2021/10/31 02:26:28;;;;;;;9.37;7.93;;;11.90;99.90;;;;;;5034590;28;20185;-90
2021/10/31 02:29:02;;;;;;;9.07;8.17;;;12.00;99.90;;;;;;5054195;28;20161;-91
2021/10/31 02:31:29;;;;;;;14.03;8.30;;;12.00;99.90;;;;;;5040656;28;20177;-92
2021/10/31 02:33:57;;;;;;;9.17;8.00;;;11.90;99.90;;;;;;5041743;28;20216;-92
2021/10/31 02:36:29;;;;;;;9.73;8.73;;;11.90;99.90;;;;;;5037460;28;20265;-92
2021/10/31 02:39:00;;;;;;;10.33;8.73;;;11.90;99.90;;;;;;5045476;28;20170;-91
2021/10/31 02:41:26;;;;;;;10.83;8.50;;;11.90;99.90;;;;;;5052969;28;20182;-92
2021/10/31 02:43:52;;;;;;;10.07;8.30;;;11.90;99.90;;;;;;5053342;28;20716;-93
2021/10/31 02:46:18;;;;;;;11.30;8.77;;;11.90;99.90;;;;;;5027091;28;20250;-84
2021/10/31 02:48:43;;;;;;;10.83;8.80;;;11.90;99.90;;;;;;5044494;28;20624;-85
2021/10/31 02:51:24;;;;;;;9.63;8.50;;;11.90;99.90;;;;;;5041117;28;20174;-87
2021/10/31 02:53:58;;;;;;;11.47;9.40;;;12.00;99.90;;;;;;5035363;28;20365;-91
2021/10/31 02:56:38;;;;;;;11.80;9.13;;;11.90;99.90;;;;;;5017058;28;20200;-90
2021/10/31 02:59:22;;;;;;;11.50;9.07;;;11.90;99.90;;;;;;5034184;28;20856;-89
2021/10/31 03:01:49;;;;;;;11.37;9.20;;;11.90;99.90;;;;;;5037483;28;20169;-87
2021/10/31 03:04:16;;;;;;;10.43;8.70;;;11.80;99.90;;;;;;5049401;28;20233;-87
2021/10/31 03:06:47;;;;;;;13.27;9.13;;;11.80;99.90;;;;;;5050002;28;20186;-90
2021/10/31 03:09:16;;;;;;;11.33;9.77;;;11.90;99.90;;;;;;5039658;28;20194;-84
2021/10/31 03:11:42;;;;;;;10.00;8.73;;;11.80;99.90;;;;;;5048185;28;20529;-91
2021/10/31 03:14:08;;;;;;;11.53;8.80;;;12.00;99.90;;;;;;5050755;28;20234;-84
2021/10/31 03:16:35;;;;;;;10.67;8.90;;;11.90;99.90;;;;;;5043879;28;20185;-88
2021/10/31 03:19:04;;;;;;;10.30;8.77;;;12.00;99.90;;;;;;5042418;28;20211;-83
2021/10/31 03:21:44;;;;;;;9.97;8.60;;;12.00;99.90;;;;;;5049656;28;20174;-83
2021/10/31 03:24:10;;;;;;;10.23;9.13;;;12.00;99.90;;;;;;5050712;28;20213;-86
2021/10/31 03:26:55;;;;;;;9.13;8.00;;;12.10;99.90;;;;;;5040044;28;20170;-87
2021/10/31 03:29:51;;;;;;;11.90;9.50;;;12.10;99.90;;;;;;5038130;28;20216;-90
2021/10/31 03:32:17;;;;;;;11.80;8.70;;;12.30;99.90;;;;;;5043245;28;20533;-84
2021/10/31 03:34:44;;;;;;;11.77;9.57;;;12.20;99.90;;;;;;5050983;28;20281;-85
2021/10/31 03:37:10;;;;;;;12.93;10.20;;;12.20;99.90;;;;;;5050382;28;20173;-85
2021/10/31 03:39:37;;;;;;;11.40;9.63;;;12.30;99.90;;;;;;5048700;28;20204;-88
2021/10/31 03:42:03;;;;;;;13.43;9.57;;;12.40;99.90;;;;;;5042769;28;20654;-86
2021/10/31 03:44:35;;;;;;;13.10;10.97;;;12.40;99.90;;;;;;5036943;28;20217;-86
2021/10/31 03:47:01;;;;;;;12.23;10.67;;;12.40;99.90;;;;;;5035649;28;20182;-86
2021/10/31 03:49:29;;;;;;;13.37;11.20;;;12.40;99.90;;;;;;5036657;28;20236;-86
2021/10/31 03:51:55;;;;;;;12.43;11.07;;;12.40;99.90;;;;;;5039514;28;20715;-84
2021/10/31 03:54:21;;;;;;;12.80;10.83;;;12.40;99.90;;;;;;5049103;28;20186;-84
2021/10/31 03:56:47;;;;;;;13.20;11.13;;;12.30;99.90;;;;;;5053280;28;20177;-92
2021/10/31 03:59:12;;;;;;;12.27;10.70;;;12.30;99.90;;;;;;5043900;28;20221;-92
2021/10/31 04:01:41;;;;;;;12.63;10.30;;;12.40;99.90;;;;;;5050878;28;20162;-92
2021/10/31 04:04:09;;;;;;;12.53;10.93;;;12.20;99.90;;;;;;5056039;28;20314;-84
2021/10/31 04:07:05;;;;;;;12.83;11.17;;;12.20;99.90;;;;;;5049289;28;20192;-83
2021/10/31 04:09:31;;;;;;;13.30;11.30;;;12.10;99.90;;;;;;5057282;28;20162;-86
2021/10/31 04:12:00;;;;;;;13.10;10.53;;;12.00;99.90;;;;;;5059631;28;20177;-86
2021/10/31 04:14:33;;;;;;;14.87;11.20;;;12.10;99.90;;;;;;5057531;28;20166;-84
2021/10/31 04:17:21;;;;;;;12.73;10.77;;;12.20;99.90;;;;;;5054000;28;20177;-87
2021/10/31 04:20:09;;;;;;;14.43;11.07;;;12.30;99.90;;;;;;5056713;28;20162;-85
2021/10/31 04:22:41;;;;;;;12.07;10.30;;;12.20;99.90;;;;;;5055016;28;20179;-90
2021/10/31 04:25:18;;;;;;;13.37;10.87;;;12.30;99.90;;;;;;5040512;28;20213;-92
2021/10/31 04:27:58;;;;;;;13.10;11.13;;;12.30;99.90;;;;;;5036108;28;20189;-87
2021/10/31 04:30:23;;;;;;;14.07;11.10;;;12.30;99.90;;;;;;5055400;28;20174;-87
2021/10/31 04:32:49;;;;;;;14.00;11.07;;;12.30;99.90;;;;;;5058719;28;20240;-84
2021/10/31 04:35:18;;;;;;;14.33;11.17;;;12.50;99.90;;;;;;5052595;28;20217;-90
2021/10/31 04:37:47;;;;;;;13.63;11.33;;;12.40;99.90;;;;;;5038162;28;20181;-93
2021/10/31 04:40:16;;;;;;;14.50;11.90;;;12.60;99.90;;;;;;5019091;28;20281;-93
2021/10/31 04:42:42;;;;;;;11.77;10.53;;;12.50;99.90;;;;;;5036690;28;20181;-93
2021/10/31 04:45:08;;;;;;;13.40;11.30;;;12.60;99.90;;;;;;5021373;28;20697;-93
2021/10/31 04:47:34;;;;;;;14.17;11.43;;;12.50;99.90;;;;;;5036842;28;20204;-92
2021/10/31 04:50:00;;;;;;;13.63;11.50;;;12.60;99.90;;;;;;5035425;28;20182;-92
2021/10/31 04:52:26;;;;;;;15.27;10.53;;;12.60;99.90;;;;;;5036104;28;20319;-92
2021/10/31 04:54:51;;;;;;;14.63;10.37;;;12.60;99.90;;;;;;5035074;28;20193;-93
2021/10/31 04:57:17;;;;;;;11.50;10.27;;;12.60;99.90;;;;;;5036034;28;20181;-92
2021/10/31 04:59:43;;;;;;;13.37;10.87;;;12.60;99.90;;;;;;5036370;28;20646;-92
2021/10/31 05:02:08;;;;;;;12.47;10.00;;;12.70;99.90;;;;;;5036253;28;20641;-89
2021/10/31 05:04:34;;;;;;;11.83;10.03;;;12.50;99.90;;;;;;5035994;28;20686;-92
2021/10/31 05:07:00;;;;;;;11.50;9.80;;;12.50;99.90;;;;;;5035523;28;20213;-91
2021/10/31 05:09:25;;;;;;;13.17;9.83;;;12.50;99.90;;;;;;5035892;28;20650;-91
2021/10/31 05:11:51;;;;;;;12.73;10.10;;;12.40;99.90;;;;;;5035560;28;20174;-91
2021/10/31 05:14:17;;;;;;;11.03;9.33;;;12.50;99.90;;;;;;5048841;28;20204;-91
2021/10/31 05:16:42;;;;;;;11.23;9.40;;;12.40;99.90;;;;;;5057630;28;20166;-90
2021/10/31 05:19:10;;;;;;;11.23;9.57;;;12.30;99.90;;;;;;5051905;28;20213;-92
2021/10/31 05:21:36;;;;;;;11.37;8.97;;;12.30;99.90;;;;;;5039872;28;20547;-92
2021/10/31 05:24:02;;;;;;;10.90;9.07;;;12.40;99.90;;;;;;5036751;28;20228;-88
2021/10/31 05:26:30;;;;;;;13.13;10.07;;;12.40;99.90;;;;;;5038838;28;20184;-85
2021/10/31 05:28:58;;;;;;;12.13;9.10;;;12.50;99.90;;;;;;5043523;28;20185;-82
2021/10/31 05:31:24;;;;;;;10.53;9.20;;;12.60;99.90;;;;;;5043912;28;20178;-83
2021/10/31 05:33:51;;;;;;;12.60;9.57;;;12.50;99.90;;;;;;5048097;28;20184;-91
2021/10/31 05:36:19;;;;;;;12.43;9.63;;;12.60;99.90;;;;;;5056344;28;20183;-82
2021/10/31 05:38:48;;;;;;;11.43;9.17;;;12.60;99.90;;;;;;5048897;28;20755;-82
2021/10/31 05:41:17;;;;;;;13.37;9.43;;;12.40;99.90;;;;;;5048582;28;20614;-84
2021/10/31 05:43:46;;;;;;;12.00;9.07;;;12.40;99.90;;;;;;5041544;28;20216;-86
2021/10/31 05:46:19;;;;;;;10.43;9.03;;;12.40;99.90;;;;;;5036249;28;20245;-85
2021/10/31 05:48:45;;;;;;;11.70;8.87;;;12.30;99.90;;;;;;5055640;28;20238;-89
2021/10/31 05:51:32;;;;;;;10.40;9.00;;;12.40;99.90;;;;;;5057694;28;20173;-92
2021/10/31 05:54:00;;;;;;;10.50;8.87;;;12.30;99.90;;;;;;5045050;28;20165;-91
2021/10/31 05:56:26;;;;;;;12.27;9.07;;;12.30;99.90;;;;;;5054923;28;20169;-86
2021/10/31 05:58:52;;;;;;;10.83;8.90;;;12.40;99.90;;;;;;5057764;28;20242;-85
2021/10/31 06:01:25;;;;;;;10.60;9.07;;;12.40;99.90;;;;;;5058978;28;20165;-82
2021/10/31 06:04:40;;;;;;;11.93;9.47;;;12.40;99.90;;;;;;5057983;28;20205;-84
2021/10/31 06:07:10;;;;;;;9.77;8.47;;;12.50;99.90;;;;;;5056990;28;20245;-82
2021/10/31 06:09:45;;;;;;;10.13;8.50;;;12.60;99.90;;;;;;5057815;28;20220;-85
2021/10/31 06:12:14;;;;;;;10.50;8.90;;;12.40;99.90;;;;;;5057774;28;20166;-85
2021/10/31 06:14:43;;;;;;;10.97;9.10;;;12.40;99.90;;;;;;5054695;28;20181;-90
2021/10/31 06:17:50;;;;;;;13.83;8.73;;;12.40;99.90;;;;;;5051423;28;20224;-91
2021/10/31 06:20:19;;;;;;;10.63;8.23;;;12.40;99.90;;;;;;5051999;28;20200;-88
2021/10/31 06:22:46;;;;;;;9.53;7.77;;;12.40;99.90;;;;;;5053907;28;20173;-89
2021/10/31 06:25:12;;;;;;;9.63;7.90;;;12.40;99.90;;;;;;5057309;28;20197;-90
2021/10/31 06:27:41;;;;;;;11.17;9.07;;;12.40;99.90;;;;;;5056738;28;20176;-83
2021/10/31 06:30:12;;;;;;;10.03;8.03;;;12.40;99.90;;;;;;5057063;28;20237;-84
2021/10/31 06:32:39;;;;;;;10.37;8.13;;;12.40;99.90;;;;;;5052298;28;20553;-91
2021/10/31 06:35:06;;;;;;;10.17;8.20;;;12.30;99.90;;;;;;5044912;28;20201;-91
2021/10/31 06:38:21;;;;;;;10.43;7.70;;;12.20;99.90;;;;;;5050623;28;20197;-87
2021/10/31 06:40:50;;;;;;;9.97;7.83;;;12.40;99.90;;;;;;5046164;28;20618;-92
2021/10/31 06:43:31;;;;;;;10.23;6.97;;;12.40;99.90;;;;;;5035451;28;20185;-90
2021/10/31 06:46:01;;;;;;;10.03;7.60;;;12.30;99.90;;;;;;5040031;28;20177;-91
2021/10/31 06:48:27;;;;;;;8.80;7.03;;;12.40;99.90;;;;;;5038232;28;20189;-88
2021/10/31 06:50:55;;;;;;;8.47;6.37;;;12.30;99.90;;;;;;5040398;28;20245;-88
2021/10/31 06:53:22;;;;;;;11.00;7.37;;;12.40;99.90;;;;;;5055030;28;20185;-87
2021/10/31 06:55:48;;;;;;;9.53;6.90;;;12.30;99.90;;;;;;5041602;28;20178;-85
2021/10/31 06:58:13;;;;;;;7.40;6.70;;;12.30;99.90;;;;;;5058453;28;20212;-84
2021/10/31 07:00:39;;;;;;;9.30;6.77;;;12.50;99.90;;;;;;5051701;28;20189;-87
2021/10/31 07:03:06;;;;;;;8.40;6.20;;;12.40;99.90;;;;;;5044464;28;20209;-89
2021/10/31 07:05:38;;;;;;;8.57;6.20;;;12.40;99.90;;;;;;5039516;28;20185;-90
2021/10/31 07:08:04;;;;;;;8.43;6.30;;;12.40;99.90;;;;;;5038927;28;20664;-92
2021/10/31 07:10:31;;;;;;;8.10;6.73;;;12.40;99.90;;;;;;5023100;28;20205;-90
2021/10/31 07:12:59;;;;;;;8.33;6.07;;;12.50;99.90;;;;;;5040988;28;20186;-88
2021/10/31 07:15:25;;;;;;;8.00;6.47;;;12.30;99.90;;;;;;5041459;28;20181;-88
2021/10/31 07:17:53;;;;;;;7.77;6.10;;;12.50;99.90;;;;;;5042924;28;20202;-89
2021/10/31 07:20:19;;;;;;;7.83;5.40;;;12.60;99.90;;;;;;5042930;28;20252;-88
2021/10/31 07:22:44;;;;;;;6.53;5.17;;;12.70;99.90;;;;;;5043457;28;20240;-84
2021/10/31 07:25:12;;;;;;;7.90;4.90;;;12.60;99.90;;;;;;5043069;28;20284;-90
2021/10/31 07:27:38;;;;;;;5.13;4.30;;;12.50;99.90;;;;;;5042124;28;20649;-86
2021/10/31 07:30:06;;;;;;;6.17;4.80;;;12.60;99.90;;;;;;5042505;28;20194;-89
2021/10/31 07:32:34;;;;;;;6.13;4.97;;;12.60;99.90;;;;;;5042007;28;20185;-92
2021/10/31 07:34:59;;;;;;;5.67;4.30;;;12.60;99.90;;;;;;5039386;28;20668;-90
2021/10/31 07:37:37;;;;;;;4.57;3.83;;;12.60;99.90;;;;;;5041987;28;20178;-88
2021/10/31 07:40:07;;;;;;;6.07;4.50;;;12.60;99.90;;;;;;5059608;28;20362;-84
2021/10/31 07:42:37;;;;;;;4.77;3.73;;;12.70;99.90;;;;;;5054766;28;20626;-85
2021/10/31 07:45:25;;;;;;;5.00;3.80;;;12.70;99.90;;;;;;5049331;28;20210;-94
2021/10/31 07:47:54;;;;;;;5.97;3.40;;;12.70;99.90;;;;;;5044583;28;20209;-92
2021/10/31 07:50:22;;;;;;;4.20;3.30;;;12.80;99.90;;;;;;5043076;28;20189;-91
2021/10/31 07:52:49;;;;;;;5.63;3.23;;;12.80;99.90;;;;;;5057199;28;20529;-87
2021/10/31 07:55:18;;;;;;;4.37;3.23;;;12.90;99.90;;;;;;5039856;28;20193;-90
2021/10/31 07:58:08;;;;;;;4.47;3.30;;;12.90;99.90;;;;;;5049226;28;20196;-91
2021/10/31 08:00:35;;;;;;;7.70;3.83;;;12.90;99.90;;;;;;5043624;28;20232;-92
2021/10/31 08:03:01;;;;;;;4.30;3.13;;;12.90;99.90;;;;;;5043725;28;20174;-93
2021/10/31 08:05:28;;;;;;;4.50;3.13;;;13.00;99.90;;;;;;5043448;28;20207;-92
2021/10/31 08:07:54;;;;;;;3.97;3.07;;;13.20;99.90;;;;;;5054697;28;20186;-92
2021/10/31 08:10:22;;;;;;;4.73;3.20;;;13.10;99.90;;;;;;5057132;28;20185;-91
2021/10/31 08:12:51;;;;;;;5.70;3.10;;;13.20;99.90;;;;;;5057085;28;20182;-90
2021/10/31 08:15:20;;;;;;;4.87;3.40;;;13.30;99.90;;;;;;5031708;28;20230;-90
2021/10/31 08:17:46;;;;;;;4.40;2.70;;;13.30;99.90;;;;;;5043112;28;20197;-89
2021/10/31 08:20:17;;;;;;;6.57;3.30;;;13.40;99.90;;;;;;5039390;28;20232;-90
2021/10/31 08:22:47;;;;;;;4.73;2.83;;;13.40;99.90;;;;;;5040694;28;20205;-90
2021/10/31 08:25:18;;;;;;;4.47;2.90;;;13.40;99.90;;;;;;5043281;28;20216;-89
2021/10/31 08:27:44;;;;;;;3.60;2.57;;;13.50;99.90;;;;;;5046165;28;20174;-90
2021/10/31 08:30:13;;;;;;;4.53;3.03;;;13.70;99.90;;;;;;5043398;28;20221;-86
2021/10/31 08:32:45;;;;;;;6.47;3.40;;;13.60;99.90;;;;;;5040692;28;20182;-88
2021/10/31 08:35:26;;;;;;;5.77;3.03;;;13.60;99.90;;;;;;5025911;28;20227;-87
2021/10/31 08:37:51;;;;;;;5.30;2.83;;;13.80;99.90;;;;;;5044988;28;20191;-90
2021/10/31 08:40:45;;;;;;;3.97;2.43;;;13.90;99.90;;;;;;5052312;28;20284;-91
2021/10/31 08:43:52;;;;;;;4.57;3.10;;;14.00;99.90;;;;;;5046101;28;20190;-89
2021/10/31 08:46:18;;;;;;;5.07;3.13;;;13.90;99.90;;;;;;5005093;28;20186;-91
2021/10/31 08:48:49;;;;;;;4.93;2.67;;;13.90;99.90;;;;;;5040794;28;20205;-90
2021/10/31 08:51:16;;;;;;;4.77;2.57;;;13.90;99.90;;;;;;5044507;28;20177;-89
2021/10/31 08:53:42;;;;;;;6.27;2.60;;;14.00;99.90;;;;;;5050546;28;20174;-88
2021/10/31 08:56:13;;;;;;;4.03;2.30;;;14.10;99.90;;;;;;5051087;28;20182;-89
2021/10/31 08:58:42;;;;;;;3.77;2.37;;;14.20;99.90;;;;;;5057514;28;20243;-88
2021/10/31 09:01:08;;;;;;;4.53;2.80;;;14.20;99.90;;;;;;5058260;28;20247;-85
2021/10/31 09:03:37;;;;;;;5.73;2.47;;;14.40;99.90;;;;;;5056198;28;20211;-86
2021/10/31 09:06:14;;;;;;;5.03;2.80;;;14.30;99.90;;;;;;5053375;28;20183;-91
2021/10/31 09:08:48;;;;;;;4.97;3.33;;;14.30;99.90;;;;;;5048193;28;20199;-88
2021/10/31 09:11:13;;;;;;;4.63;2.40;;;14.40;99.90;;;;;;5040699;28;20164;-91
2021/10/31 09:13:39;;;;;;;3.63;2.30;;;14.50;99.90;;;;;;5040133;28;20223;-92
2021/10/31 09:16:05;;;;;;;5.50;2.90;;;14.60;99.90;;;;;;5039314;28;20187;-93
2021/10/31 09:18:32;;;;;;;4.47;2.50;;;14.70;99.90;;;;;;5039218;28;20197;-92
2021/10/31 09:20:59;;;;;;;4.67;2.43;;;14.80;99.90;;;;;;5040218;28;20199;-91
2021/10/31 09:23:25;;;;;;;5.00;2.23;;;15.00;99.90;;;;;;5038290;28;20220;-92
2021/10/31 09:25:51;;;;;;;6.57;3.47;;;15.00;99.50;;;;;;5038528;28;20192;-91
2021/10/31 09:28:17;;;;;;;4.30;2.30;;;15.00;99.20;;;;;;5039376;28;20589;-93
2021/10/31 09:30:45;;;;;;;4.40;2.20;;;15.00;98.90;;;;;;5040002;28;20254;-91
2021/10/31 09:33:12;;;;;;;5.50;1.90;;;15.10;99.30;;;;;;5029253;28;20261;-90
2021/10/31 09:35:47;;;;;;;4.10;1.60;;;15.00;98.60;;;;;;5056988;28;20201;-84
2021/10/31 09:38:17;;;;;;;4.70;1.60;;;15.10;98.60;;;;;;5046944;28;20176;-85
2021/10/31 09:40:45;;;;;;;3.73;1.50;;;15.10;98.70;;;;;;5056069;28;20184;-89
2021/10/31 09:43:11;;;;;;;3.80;1.70;;;15.10;98.40;;;;;;5055936;28;20188;-87
2021/10/31 09:45:40;;;;;;;3.53;1.53;;;15.20;97.70;;;;;;5056727;28;20264;-89
2021/10/31 09:48:18;;;;;;;3.70;1.40;;;15.30;97.20;;;;;;5056713;28;20220;-85
2021/10/31 09:50:48;;;;;;;2.90;1.53;;;15.30;96.30;;;;;;5052945;28;20200;-92
2021/10/31 09:53:17;;;;;;;3.87;1.60;;;15.20;96.30;;;;;;5046777;28;20176;-88
2021/10/31 09:55:47;;;;;;;4.13;2.07;;;15.50;96.50;;;;;;5055815;28;20169;-84
2021/10/31 09:58:23;;;;;;;3.73;1.70;;;15.50;95.30;;;;;;5056216;28;20157;-86
2021/10/31 10:00:57;;;;;;;3.77;1.87;;;15.50;94.00;;;;;;5052882;28;20599;-91
2021/10/31 10:06:23;;;;;;;2.63;1.27;;;15.60;92.80;;;;;;5038668;28;20260;-91
2021/10/31 10:09:09;;;;;;;4.87;1.60;;;15.50;92.80;;;;;;5036793;28;20185;-90
2021/10/31 10:11:40;;;;;;;5.20;1.67;;;15.60;92.80;;;;;;5036967;28;20248;-90
2021/10/31 10:14:30;;;;;;;5.90;1.80;;;15.60;92.10;;;;;;5049591;28;20173;-88
2021/10/31 10:16:58;;;;;;;4.73;1.40;;;15.60;92.20;;;;;;5055779;28;20208;-87
2021/10/31 10:19:31;;;;;;;3.47;1.40;;;15.60;92.10;;;;;;5053059;28;20204;-89
2021/10/31 10:22:09;;;;;;;2.87;1.60;;;15.50;92.30;;;;;;5051082;28;20215;-91
2021/10/31 10:24:48;;;;;;;5.77;2.10;;;15.50;92.40;;;;;;5031371;28;20228;-88
2021/10/31 10:27:18;;;;;;;4.60;1.70;;;15.60;92.60;;;;;;5041143;28;20189;-92
2021/10/31 10:29:46;;;;;;;5.17;1.80;;;15.60;92.40;;;;;;5041033;28;20236;-90
2021/10/31 10:32:28;;;;;;;4.07;1.43;;;15.60;92.30;;;;;;5031652;28;20189;-92
2021/10/31 10:34:57;;;;;;;3.17;1.30;;;15.70;92.60;;;;;;5042160;28;20283;-91
2021/10/31 10:37:43;;;;;;;3.87;1.83;;;15.60;93.10;;;;;;5047036;28;20189;-88
2021/10/31 10:40:19;;;;;;;4.60;1.57;;;15.70;92.80;;;;;;5027435;28;20219;-91
2021/10/31 10:42:51;;;;;;;3.77;1.57;;;15.70;92.50;;;;;;5041543;28;20213;-91
2021/10/31 10:45:20;;;;;;;6.57;2.10;;;15.70;92.70;;;;;;5039643;28;20263;-91
2021/10/31 10:47:57;;;;;;;3.67;1.50;;;15.60;93.50;;;;;;5026137;28;20685;-91
2021/10/31 10:50:28;;;;;;;3.87;1.50;;;15.70;93.40;;;;;;5039276;28;20197;-90
2021/10/31 10:52:59;;;;;;;2.97;1.40;;;15.70;93.80;;;;;;5041913;28;20182;-92
2021/10/31 10:55:27;;;;;;;4.07;1.67;;;15.80;93.90;;;;;;5027489;28;20230;-91
2021/10/31 10:58:02;;;;;;;2.80;1.40;;;15.80;93.90;;;;;;5042224;28;20271;-92
2021/10/31 11:00:40;;;;;;;3.67;1.30;;;15.90;94.20;;;;;;5026725;28;20189;-87
2021/10/31 11:03:18;;;;;;;5.33;1.57;;;15.80;94.40;;;;;;5055877;28;20237;-88
2021/10/31 11:06:02;;;;;;;2.93;1.37;;;15.90;94.40;;;;;;5059276;28;20243;-92
2021/10/31 11:08:34;;;;;;;3.57;1.33;;;16.00;94.30;;;;;;5026859;28;20185;-91
2021/10/31 11:11:15;;;;;;;3.13;1.50;;;16.20;94.20;;;;;;5046922;28;20258;-88
2021/10/31 11:13:52;;;;;;;3.00;1.70;;;16.30;93.70;;;;;;5054057;28;20174;-83
2021/10/31 11:16:22;;;;;;;3.50;1.60;;;16.30;92.80;;;;;;5057949;28;20181;-83
2021/10/31 11:18:47;;;;;;;6.60;2.20;;;16.30;92.30;;;;;;5041909;28;20216;-86
2021/10/31 11:21:36;;;;;;;5.50;2.10;;;16.40;92.40;;;;;;5059924;28;20233;-84
2021/10/31 11:24:03;;;;;;;5.47;2.03;;;16.40;91.90;;;;;;5055266;28;20824;-89
2021/10/31 11:26:35;;;;;;;3.33;1.73;;;16.50;91.90;;;;;;5058570;28;20181;-85
2021/10/31 11:29:19;;;;;;;4.40;1.67;;;16.60;91.20;;;;;;5052490;28;20340;-89
2021/10/31 11:31:47;;;;;;;6.67;2.23;;;16.60;90.50;;;;;;5044723;28;20182;-89
2021/10/31 11:34:14;;;;;;;4.40;2.07;;;16.80;90.60;;;;;;5046036;28;20178;-89
2021/10/31 11:36:40;;;;;;;5.27;2.00;;;16.90;89.80;;;;;;5038396;28;20221;-88
2021/10/31 11:39:06;;;;;;;3.60;1.70;;;16.90;87.00;;;;;;5051846;28;20177;-91
2021/10/31 11:41:36;;;;;;;6.40;2.00;;;17.00;85.60;;;;;;5047221;28;20192;-90
2021/10/31 11:44:15;;;;;;;4.10;1.63;;;17.00;86.40;;;;;;5042837;28;20216;-90
2021/10/31 11:46:47;;;;;;;7.60;1.90;;;17.00;85.30;;;;;;5057186;28;20166;-85
2021/10/31 11:49:20;;;;;;;4.40;1.93;;;17.10;84.00;;;;;;5058671;28;20194;-89
2021/10/31 11:51:48;;;;;;;4.77;1.87;;;17.20;81.80;;;;;;5057024;28;20230;-85
2021/10/31 11:54:21;;;;;;;4.20;1.77;;;17.20;81.40;;;;;;5056851;28;20165;-89
2021/10/31 11:57:17;;;;;;;3.00;1.67;;;17.20;81.60;;;;;;5046083;28;20178;-89
2021/10/31 12:00:13;;;;;;;4.83;1.90;;;17.30;79.70;;;;;;5040508;28;20218;-85
2021/10/31 12:02:45;;;;;;;4.73;1.83;;;17.30;78.70;;;;;;5034723;28;20247;-92
2021/10/31 12:05:44;;;;;;;3.00;1.47;;;17.30;79.00;;;;;;5054286;28;20212;-88
2021/10/31 12:08:46;;;;;;;3.80;1.93;;;17.20;77.80;;;;;;5004543;28;20341;-86
2021/10/31 12:11:14;;;;;;;6.37;1.80;;;17.30;77.60;;;;;;5057605;28;20272;-88
2021/10/31 12:13:47;;;;;;;3.60;1.60;;;17.30;77.90;;;;;;5059026;28;20182;-86
2021/10/31 12:16:21;;;;;;;4.60;1.60;;;17.40;76.50;;;;;;5039119;28;20170;-84
2021/10/31 12:18:49;;;;;;;3.53;1.97;;;17.40;76.10;;;;;;5056074;28;20307;-86
2021/10/31 12:21:32;;;;;;;5.10;1.83;;;17.40;74.60;;;;;;5057646;28;20178;-86
2021/10/31 12:24:17;;;;;;;4.73;2.00;;;17.40;76.30;;;;;;5057286;28;20323;-87
2021/10/31 12:26:54;;;;;;;4.67;2.10;;;17.40;74.50;;;;;;5056457;28;20193;-89
2021/10/31 12:29:22;;;;;;;3.37;1.60;;;17.40;74.40;;;;;;5049423;28;20187;-91
2021/10/31 12:32:13;;;;;;;3.50;1.93;;;17.40;74.40;;;;;;5045636;28;20202;-89
2021/10/31 12:34:44;;;;;;;3.40;1.60;;;17.40;76.20;;;;;;5052323;28;20205;-90
2021/10/31 12:37:31;;;;;;;4.43;2.20;;;17.40;76.40;;;;;;5059142;28;20173;-86
2021/10/31 12:40:16;;;;;;;3.17;1.53;;;17.50;77.70;;;;;;5057313;28;20193;-92
2021/10/31 12:42:58;;;;;;;2.47;1.30;;;17.50;76.70;;;;;;5056142;28;20176;-84
2021/10/31 12:45:46;;;;;;;5.07;1.73;;;17.50;77.80;;;;;;5054620;28;20743;-91
2021/10/31 12:48:23;;;;;;;2.53;1.70;;;17.50;78.80;;;;;;5036268;28;20182;-87
2021/10/31 12:50:55;;;;;;;4.80;2.30;;;17.50;78.70;;;;;;5037233;28;20300;-89
2021/10/31 12:53:52;;;;;;;7.40;4.60;;;17.60;77.70;;;;;;5046976;28;20204;-91
2021/10/31 12:56:22;;;;;;;4.50;1.97;;;17.60;78.10;;;;;;5047200;28;20185;-91
2021/10/31 12:58:48;;;;;;;3.53;1.50;;;17.60;78.90;;;;;;5031997;28;20205;-91
2021/10/31 13:01:17;;;;;;;2.97;1.40;;;17.60;78.60;;;;;;5031149;28;20189;-89
2021/10/31 13:03:45;;;;;;;4.67;1.53;;;17.60;78.60;;;;;;5045996;28;20281;-92
2021/10/31 13:06:12;;;;;;;4.97;1.50;;;17.60;79.60;;;;;;5043432;28;20278;-88
2021/10/31 13:08:38;;;;;;;4.33;1.97;;;17.50;80.90;;;;;;5042851;28;20250;-89
2021/10/31 13:11:04;;;;;;;2.80;1.80;;;17.60;81.50;;;;;;5042531;28;20206;-91